Time;durP1;ratioP1;P1;durP2;ratioP2;P2;SDS_P1;SDS_P2;PMS_P1;PMS_P2;Temp;Humidity;BMP_temperature;BMP_pressure;BME280_temperature;BME280_humidity;BME280_pressure;Samples;Min_cycle;Max_cycle;Signal;HPM_P1;HPM_P2
2022/04/21 00:01:31;;;;;;;;;;;;;;;17.23;36.91;101606.16;5033895;28;20011;-72
2022/04/21 00:03:56;;;;;;;;;;;;;;;17.10;36.82;101608.41;5033041;28;20011;-72
2022/04/21 00:06:22;;;;;;;;;;;;;;;17.10;37.44;101608.41;5033350;28;19952;-72
2022/04/21 00:08:47;;;;;;;;;;;;;;;16.97;37.61;101600.59;5033062;28;19927;-72
2022/04/21 00:11:12;;;;;;;;;;;;;;;17.36;36.58;101600.34;5033111;28;19956;-73
2022/04/21 00:13:37;;;;;;;;;;;;;;;17.04;37.54;101587.69;5033587;28;19913;-74
2022/04/21 00:16:03;;;;;;;;;;;;;;;17.04;37.24;101584.97;5032720;28;19931;-72
2022/04/21 00:18:28;;;;;;;;;;;;;;;16.79;37.93;101579.97;5033024;28;19917;-74
2022/04/21 00:20:53;;;;;;;;;;;;;;;17.02;37.13;101578.97;5033182;28;19970;-73
2022/04/21 00:23:28;;;;;;;;;;;;;;;17.06;37.02;101577.41;5032730;28;20016;-73
2022/04/21 00:25:54;;;;;;;;;;;;;;;17.37;36.62;101582.16;5033313;28;20544;-73
2022/04/21 00:28:20;;;;;;;;;;;;;;;17.23;36.80;101581.72;5031209;28;20438;-73
2022/04/21 00:30:45;;;;;;;;;;;;;;;17.28;36.97;101580.94;5032115;28;19916;-72
2022/04/21 00:33:10;;;;;;;;;;;;;;;17.31;36.74;101584.00;5032653;28;19917;-72
2022/04/21 00:35:35;;;;;;;;;;;;;;;17.41;36.21;101584.09;5031052;28;20342;-73
2022/04/21 00:38:01;;;;;;;;;;;;;;;17.05;37.32;101575.72;5032895;28;19909;-72
2022/04/21 00:40:27;;;;;;;;;;;;;;;17.45;36.63;101573.59;5032927;28;19974;-73
2022/04/21 00:42:54;;;;;;;;;;;;;;;17.47;36.39;101574.16;5032563;28;19924;-73
2022/04/21 00:45:19;;;;;;;;;;;;;;;17.26;37.15;101583.09;5032575;28;19916;-73
2022/04/21 00:47:45;;;;;;;;;;;;;;;17.27;36.85;101576.59;5032441;28;19963;-73
2022/04/21 00:50:15;;;;;;;;;;;;;;;17.39;36.53;101567.22;5032303;28;19919;-73
2022/04/21 00:52:41;;;;;;;;;;;;;;;17.08;37.39;101577.97;5032902;28;20389;-74
2022/04/21 00:55:07;;;;;;;;;;;;;;;17.18;37.33;101578.91;5032500;28;19921;-73
2022/04/21 00:57:32;;;;;;;;;;;;;;;17.27;37.40;101577.44;5032232;28;20372;-72
2022/04/21 00:59:58;;;;;;;;;;;;;;;17.47;36.71;101572.22;5032112;28;20000;-73
2022/04/21 01:05:08;;;;;;;;;;;;;;;17.07;36.83;101574.41;5032257;28;20008;-75
2022/04/21 01:07:34;;;;;;;;;;;;;;;17.36;37.25;101575.06;5033192;28;19901;-74
2022/04/21 01:09:59;;;;;;;;;;;;;;;17.51;36.02;101570.69;5031795;28;20304;-74
2022/04/21 01:12:24;;;;;;;;;;;;;;;17.24;36.82;101574.38;5031798;28;19940;-73
2022/04/21 01:14:50;;;;;;;;;;;;;;;17.17;37.77;101574.56;5032017;28;19913;-73
2022/04/21 01:17:15;;;;;;;;;;;;;;;17.13;37.71;101570.72;5031992;28;20365;-73
2022/04/21 01:19:40;;;;;;;;;;;;;;;16.99;37.60;101565.88;5031778;28;19962;-72
2022/04/21 01:22:05;;;;;;;;;;;;;;;16.87;38.09;101568.69;5031494;28;20048;-74
2022/04/21 01:24:31;;;;;;;;;;;;;;;17.02;37.68;101565.38;5031644;28;19960;-72
2022/04/21 01:26:57;;;;;;;;;;;;;;;16.56;38.50;101570.13;5031305;28;19928;-73
2022/04/21 01:29:23;;;;;;;;;;;;;;;16.73;38.44;101561.94;5031776;28;20575;-74
2022/04/21 01:31:48;;;;;;;;;;;;;;;16.83;38.29;101559.41;5032060;28;20051;-73
2022/04/21 01:34:13;;;;;;;;;;;;;;;16.86;38.20;101555.38;5029672;28;19917;-73
2022/04/21 01:41:08;;;;;;;;;;;;;;;16.49;38.57;101561.31;5031520;28;19928;-72
2022/04/21 01:42:12;;;;;;;;;;;;;;;16.86;38.30;101558.91;5034372;28;20020;-73
2022/04/21 01:44:38;;;;;;;;;;;;;;;16.71;38.39;101557.88;5034391;28;19917;-74
2022/04/21 01:47:03;;;;;;;;;;;;;;;16.65;38.34;101551.50;5035885;28;20370;-73
2022/04/21 01:49:28;;;;;;;;;;;;;;;16.55;39.29;101546.75;5036709;28;19901;-74
2022/04/21 01:51:53;;;;;;;;;;;;;;;16.68;38.69;101549.16;5035894;28;20385;-73
2022/04/21 01:54:19;;;;;;;;;;;;;;;16.50;39.29;101545.84;5034300;28;19931;-73
2022/04/21 01:56:44;;;;;;;;;;;;;;;16.49;39.31;101542.31;5035499;28;19917;-73
2022/04/21 01:59:10;;;;;;;;;;;;;;;16.38;39.14;101548.63;5035825;28;19954;-75
2022/04/21 02:01:35;;;;;;;;;;;;;;;16.37;39.45;101535.31;5036180;28;19913;-73
2022/04/21 02:04:00;;;;;;;;;;;;;;;16.48;38.91;101546.09;5033768;28;19917;-73
2022/04/21 02:06:25;;;;;;;;;;;;;;;16.44;38.94;101535.94;5035738;28;20325;-73
2022/04/21 02:08:50;;;;;;;;;;;;;;;16.60;38.47;101541.41;5033205;28;19913;-73
2022/04/21 02:11:16;;;;;;;;;;;;;;;16.62;38.46;101535.75;5034685;28;19939;-73
2022/04/21 02:13:41;;;;;;;;;;;;;;;16.44;39.01;101530.53;5035690;28;19909;-73
2022/04/21 02:16:06;;;;;;;;;;;;;;;16.51;38.89;101532.03;5034983;28;19920;-73
2022/04/21 02:18:31;;;;;;;;;;;;;;;16.66;38.16;101535.00;5034946;28;19917;-73
2022/04/21 02:20:57;;;;;;;;;;;;;;;16.25;39.44;101531.84;5035224;28;19971;-72
2022/04/21 02:23:22;;;;;;;;;;;;;;;16.37;39.08;101541.53;5035227;28;19917;-72
2022/04/21 02:25:47;;;;;;;;;;;;;;;16.14;39.70;101535.44;5035331;28;19920;-73
2022/04/21 02:28:13;;;;;;;;;;;;;;;16.61;38.06;101536.78;5034949;28;19924;-74
2022/04/21 02:30:38;;;;;;;;;;;;;;;16.57;38.57;101535.63;5034650;28;19917;-73
2022/04/21 02:33:03;;;;;;;;;;;;;;;16.40;38.84;101541.06;5034969;28;19913;-74
2022/04/21 02:35:29;;;;;;;;;;;;;;;16.25;39.08;101529.13;5034716;28;19992;-73
2022/04/21 02:37:54;;;;;;;;;;;;;;;16.47;38.79;101522.72;5035141;28;19998;-74
2022/04/21 02:40:19;;;;;;;;;;;;;;;16.41;39.12;101520.97;5034285;28;19924;-73
2022/04/21 02:42:45;;;;;;;;;;;;;;;16.20;39.57;101526.31;5034760;28;19913;-74
2022/04/21 02:45:11;;;;;;;;;;;;;;;16.20;39.70;101526.31;5034644;28;19999;-74
2022/04/21 02:47:37;;;;;;;;;;;;;;;16.29;39.09;101535.72;5035062;28;19921;-73
2022/04/21 02:50:02;;;;;;;;;;;;;;;16.13;39.50;101525.66;5035091;28;19966;-72
2022/04/21 02:52:28;;;;;;;;;;;;;;;16.07;39.71;101526.66;5034362;28;19909;-74
2022/04/21 02:57:37;;;;;;;;;;;;;;;16.14;39.81;101525.41;5034470;28;20000;-73
2022/04/21 03:00:04;;;;;;;;;;;;;;;16.22;38.90;101537.75;5034680;28;20336;-73
2022/04/21 03:02:30;;;;;;;;;;;;;;;16.39;38.47;101541.31;5034571;28;19917;-74
2022/04/21 03:04:55;;;;;;;;;;;;;;;15.99;39.64;101535.16;5034627;28;19991;-74
2022/04/21 03:07:22;;;;;;;;;;;;;;;16.16;39.09;101533.28;5034644;28;19948;-73
2022/04/21 03:09:47;;;;;;;;;;;;;;;16.21;38.80;101539.66;5033974;28;20293;-73
2022/04/21 03:12:12;;;;;;;;;;;;;;;16.39;38.47;101538.59;5034022;28;19917;-74
2022/04/21 03:14:38;;;;;;;;;;;;;;;16.07;39.63;101538.31;5034079;28;19916;-74
2022/04/21 03:17:04;;;;;;;;;;;;;;;16.18;39.23;101529.28;5034069;28;19971;-75
2022/04/21 03:19:30;;;;;;;;;;;;;;;15.85;40.01;101540.06;5034714;28;20288;-73
2022/04/21 03:24:44;;;;;;;;;;;;;;;15.78;40.39;101528.56;5011461;28;19917;-75
2022/04/21 03:27:09;;;;;;;;;;;;;;;15.76;40.06;101536.91;5011035;28;19917;-74
2022/04/21 03:29:37;;;;;;;;;;;;;;;15.66;40.22;101534.00;5011246;28;19917;-73
2022/04/21 03:32:06;;;;;;;;;;;;;;;15.77;40.55;101535.88;5011543;28;20121;-73
2022/04/21 03:34:32;;;;;;;;;;;;;;;15.80;40.20;101534.56;5011723;28;20428;-74
2022/04/21 03:36:57;;;;;;;;;;;;;;;15.65;40.32;101532.38;5011363;28;19969;-75
2022/04/21 03:39:22;;;;;;;;;;;;;;;15.68;40.37;101531.88;5011092;28;19933;-72
2022/04/21 03:41:53;;;;;;;;;;;;;;;15.74;40.43;101532.81;5010958;28;19941;-74
2022/04/21 03:44:18;;;;;;;;;;;;;;;15.53;40.74;101537.00;5011077;28;19925;-74
2022/04/21 03:46:44;;;;;;;;;;;;;;;15.36;41.05;101538.81;5011302;28;19916;-73
2022/04/21 03:49:09;;;;;;;;;;;;;;;15.50;40.88;101542.94;5010997;28;20007;-74
2022/04/21 03:51:34;;;;;;;;;;;;;;;15.60;40.73;101531.47;5010518;28;19917;-73
2022/04/21 03:54:01;;;;;;;;;;;;;;;15.56;40.47;101530.31;5010809;28;19968;-75
2022/04/21 03:56:27;;;;;;;;;;;;;;;15.28;41.11;101530.22;5010966;28;19921;-73
2022/04/21 03:58:52;;;;;;;;;;;;;;;15.62;40.45;101535.59;5011370;28;20443;-74
2022/04/21 04:01:19;;;;;;;;;;;;;;;15.40;40.91;101533.72;5016818;28;19921;-74
2022/04/21 04:03:44;;;;;;;;;;;;;;;15.31;40.71;101538.69;5032892;28;20375;-74
2022/04/21 04:11:38;;;;;;;;;;;;;;;15.23;41.35;101540.97;5032722;28;20598;-74
2022/04/21 04:14:05;;;;;;;;;;;;;;;15.12;41.66;101537.19;5064423;28;19913;-75
2022/04/21 04:16:31;;;;;;;;;;;;;;;15.30;41.17;101542.47;5032903;28;20270;-73
2022/04/21 04:18:56;;;;;;;;;;;;;;;15.29;41.20;101538.09;5032821;28;19928;-74
2022/04/21 04:21:22;;;;;;;;;;;;;;;15.29;40.69;101538.09;5031729;28;19987;-74
2022/04/21 04:23:47;;;;;;;;;;;;;;;15.38;41.15;101535.84;5032771;28;19916;-75
2022/04/21 04:26:12;;;;;;;;;;;;;;;15.51;40.89;101535.59;5032679;28;19909;-75
2022/04/21 04:28:37;;;;;;;;;;;;;;;15.34;41.44;101532.81;5033060;28;19909;-74
2022/04/21 04:31:03;;;;;;;;;;;;;;;15.37;40.87;101539.63;5032499;28;20342;-74
2022/04/21 04:33:28;;;;;;;;;;;;;;;15.05;42.02;101527.56;5032974;28;19917;-75
2022/04/21 04:35:53;;;;;;;;;;;;;;;15.22;41.36;101540.13;5032402;28;20365;-74
2022/04/21 04:38:18;;;;;;;;;;;;;;;15.21;41.87;101543.91;5032897;28;20292;-73
2022/04/21 04:40:44;;;;;;;;;;;;;;;15.28;41.81;101543.75;5032576;28;19916;-74
2022/04/21 04:43:09;;;;;;;;;;;;;;;15.14;41.98;101531.53;5032559;28;19959;-75
2022/04/21 04:48:18;;;;;;;;;;;;;;;14.95;42.35;101541.69;5032933;28;19923;-75
2022/04/21 04:50:43;;;;;;;;;;;;;;;15.20;41.61;101538.72;5032748;28;20491;-74
2022/04/21 04:53:09;;;;;;;;;;;;;;;15.04;42.17;101537.56;5030959;28;20289;-73
2022/04/21 04:55:35;;;;;;;;;;;;;;;15.18;42.13;101543.53;5064396;28;19913;-74
2022/04/21 04:58:00;;;;;;;;;;;;;;;15.01;42.28;101542.63;5032099;28;19936;-73
2022/04/21 05:00:28;;;;;;;;;;;;;;;15.09;42.17;101539.56;5031873;28;20349;-73
2022/04/21 05:02:53;;;;;;;;;;;;;;;15.39;41.71;101545.63;5032061;28;19924;-73
2022/04/21 05:05:18;;;;;;;;;;;;;;;15.26;42.04;101548.59;5032391;28;20324;-73
2022/04/21 05:07:43;;;;;;;;;;;;;;;15.44;41.05;101549.31;5033065;28;19909;-71
2022/04/21 05:10:09;;;;;;;;;;;;;;;15.18;41.73;101543.53;5032207;28;19917;-74
2022/04/21 05:12:34;;;;;;;;;;;;;;;15.48;40.95;101547.75;5012280;28;19945;-74
2022/04/21 05:14:59;;;;;;;;;;;;;;;15.22;41.51;101552.84;5012332;28;19917;-74
2022/04/21 05:17:25;;;;;;;;;;;;;;;15.06;42.41;101553.56;5015875;28;20040;-75
2022/04/21 05:19:52;;;;;;;;;;;;;;;15.43;41.69;101554.97;5027994;28;19924;-74
2022/04/21 05:22:20;;;;;;;;;;;;;;;15.57;41.15;101559.03;5036272;28;19917;-74
2022/04/21 05:24:46;;;;;;;;;;;;;;;15.50;41.46;101558.34;5034938;28;20350;-73
2022/04/21 05:27:12;;;;;;;;;;;;;;;15.59;40.63;101559.59;5035551;28;19924;-74
2022/04/21 05:32:24;;;;;;;;;;;;;;;15.34;41.80;101561.75;5035854;28;20008;-72
2022/04/21 05:34:50;;;;;;;;;;;;;;;15.46;41.52;101568.00;5030754;28;19928;-70
2022/04/21 05:37:15;;;;;;;;;;;;;;;15.47;41.53;101570.47;5016034;28;20404;-72
2022/04/21 05:39:41;;;;;;;;;;;;;;;15.60;41.32;101566.69;5015564;28;20366;-72
2022/04/21 05:42:06;;;;;;;;;;;;;;;15.79;40.88;101568.97;5015517;28;19917;-71
2022/04/21 05:44:31;;;;;;;;;;;;;;;15.94;40.38;101570.34;5015414;28;19917;-72
2022/04/21 05:46:57;;;;;;;;;;;;;;;15.84;40.43;101571.75;5031325;28;19917;-71
2022/04/21 05:49:22;;;;;;;;;;;;;;;15.76;41.41;101569.44;5015606;28;19913;-73
2022/04/21 05:51:48;;;;;;;;;;;;;;;15.89;40.64;101571.06;5015596;28;19917;-72
2022/04/21 05:54:14;;;;;;;;;;;;;;;15.76;41.37;101564.03;5026105;28;19917;-73
2022/04/21 05:56:39;;;;;;;;;;;;;;;15.84;41.08;101570.97;5034588;28;20423;-72
2022/04/21 05:59:05;;;;;;;;;;;;;;;15.65;41.72;101567.59;5034860;28;19917;-72
2022/04/21 06:01:30;;;;;;;;;;;;;;;15.91;40.83;101563.50;5035528;28;20393;-72
2022/04/21 06:03:56;;;;;;;;;;;;;;;16.15;40.59;101558.78;5035244;28;19921;-71
2022/04/21 06:06:21;;;;;;;;;;;;;;;15.89;40.87;101565.63;5033593;28;19921;-70
2022/04/21 06:08:46;;;;;;;;;;;;;;;16.28;40.08;101562.00;5034873;28;20356;-71
2022/04/21 06:11:13;;;;;;;;;;;;;;;16.05;40.63;101556.72;5034982;28;19955;-72
2022/04/21 06:13:40;;;;;;;;;;;;;;;16.47;39.65;101557.19;5035573;28;19917;-72
2022/04/21 06:16:06;;;;;;;;;;;;;;;16.41;40.09;101558.97;5034955;28;19921;-73
2022/04/21 06:18:31;;;;;;;;;;;;;;;16.21;40.18;101560.53;5034739;28;19924;-73
2022/04/21 06:20:57;;;;;;;;;;;;;;;16.41;39.95;101560.88;5034518;28;19967;-72
2022/04/21 06:23:22;;;;;;;;;;;;;;;16.30;39.90;101557.16;5035077;28;19979;-71
2022/04/21 06:25:47;;;;;;;;;;;;;;;16.65;39.47;101556.94;5035627;28;19913;-74
2022/04/21 06:28:13;;;;;;;;;;;;;;;16.18;40.49;101559.13;5033136;28;19912;-72
2022/04/21 06:30:39;;;;;;;;;;;;;;;16.54;40.09;101555.16;5034911;28;19917;-72
2022/04/21 06:33:05;;;;;;;;;;;;;;;16.98;38.78;101554.19;5034930;28;19923;-73
2022/04/21 06:35:30;;;;;;;;;;;;;;;17.20;37.91;101548.78;5034125;28;19963;-71
2022/04/21 06:37:56;;;;;;;;;;;;;;;16.92;38.95;101549.78;5034981;28;19917;-71
2022/04/21 06:40:21;;;;;;;;;;;;;;;16.52;39.74;101549.97;5034476;28;19921;-71
2022/04/21 06:42:47;;;;;;;;;;;;;;;16.96;39.27;101552.81;5032751;28;20008;-70
2022/04/21 06:48:01;;;;;;;;;;;;;;;17.40;38.18;101552.59;5034395;28;19928;-72
2022/04/21 06:50:27;;;;;;;;;;;;;;;17.27;37.68;101550.25;5033483;28;20501;-72
2022/04/21 06:52:52;;;;;;;;;;;;;;;17.36;37.94;101548.72;5034555;28;19920;-71
2022/04/21 06:55:17;;;;;;;;;;;;;;;16.92;38.48;101547.06;5035025;28;19962;-70
2022/04/21 06:57:43;;;;;;;;;;;;;;;17.61;37.06;101548.22;5034550;28;19917;-70
2022/04/21 07:00:09;;;;;;;;;;;;;;;17.38;37.99;101549.31;5034487;28;19927;-70
2022/04/21 07:02:37;;;;;;;;;;;;;;;18.20;36.24;101549.16;5034623;28;19913;-70
2022/04/21 07:05:04;;;;;;;;;;;;;;;18.11;36.59;101551.50;5032212;28;19913;-71
2022/04/21 07:07:29;;;;;;;;;;;;;;;17.92;36.27;101555.69;5034893;28;19917;-71
2022/04/21 07:09:56;;;;;;;;;;;;;;;17.60;36.86;101556.66;5034497;28;20280;-72
2022/04/21 07:12:25;;;;;;;;;;;;;;;17.55;37.13;101566.38;5033938;28;19955;-71
2022/04/21 07:14:50;;;;;;;;;;;;;;;17.49;36.89;101561.97;5034368;28;20308;-71
2022/04/21 07:17:15;;;;;;;;;;;;;;;16.63;38.21;101559.91;5040832;28;19913;-71
2022/04/21 07:19:40;;;;;;;;;;;;;;;17.80;35.77;101565.88;5033077;28;19913;-70
2022/04/21 07:22:06;;;;;;;;;;;;;;;18.12;35.34;101564.03;5033319;28;19994;-72
2022/04/21 07:24:31;;;;;;;;;;;;;;;18.31;35.71;101562.59;5033771;28;19924;-72
2022/04/21 07:26:56;;;;;;;;;;;;;;;18.75;34.63;101557.78;5033845;28;20300;-71
2022/04/21 07:29:22;;;;;;;;;;;;;;;18.61;34.56;101558.50;5034094;28;19924;-70
2022/04/21 07:31:47;;;;;;;;;;;;;;;18.34;34.74;101561.22;5040378;28;19969;-71
2022/04/21 07:34:13;;;;;;;;;;;;;;;18.65;34.45;101565.06;5033949;28;20523;-71
2022/04/21 07:36:38;;;;;;;;;;;;;;;18.56;33.70;101563.91;5033436;28;19921;-71
2022/04/21 07:39:04;;;;;;;;;;;;;;;18.53;33.35;101564.44;5033627;28;19917;-71
2022/04/21 07:41:29;;;;;;;;;;;;;;;18.87;32.87;101560.34;5031814;28;19917;-71
2022/04/21 07:43:54;;;;;;;;;;;;;;;18.73;33.21;101556.41;5033722;28;19966;-70
2022/04/21 07:46:19;;;;;;;;;;;;;;;19.12;32.29;101558.56;5033323;28;19917;-74
2022/04/21 07:51:28;;;;;;;;;;;;;;;19.41;31.34;101558.19;5032315;28;20002;-72
2022/04/21 07:53:53;;;;;;;;;;;;;;;19.35;32.09;101557.34;5033374;28;19956;-70
2022/04/21 07:56:19;;;;;;;;;;;;;;;19.21;32.08;101561.63;5031480;28;19924;-71
2022/04/21 07:58:44;;;;;;;;;;;;;;;20.00;31.69;101557.59;5033353;28;19928;-71
2022/04/21 08:01:11;;;;;;;;;;;;;;;18.71;33.25;101553.13;5032903;28;19936;-70
2022/04/21 08:03:37;;;;;;;;;;;;;;;19.91;31.45;101552.94;5033150;28;19919;-71
2022/04/21 08:06:05;;;;;;;;;;;;;;;19.61;32.58;101550.94;5031408;28;20000;-71
2022/04/21 08:08:31;;;;;;;;;;;;;;;19.89;31.72;101550.44;5032558;28;20285;-70
2022/04/21 08:10:56;;;;;;;;;;;;;;;20.23;31.17;101555.44;5033470;28;19916;-70
2022/04/21 08:13:21;;;;;;;;;;;;;;;18.94;32.61;101550.84;5032942;28;20308;-71
2022/04/21 08:15:47;;;;;;;;;;;;;;;19.46;32.09;101547.34;5033152;28;20261;-71
2022/04/21 08:18:12;;;;;;;;;;;;;;;19.65;31.38;101552.03;5033139;28;19924;-71
2022/04/21 08:20:39;;;;;;;;;;;;;;;20.61;29.83;101550.28;5033170;28;19921;-71
2022/04/21 08:23:05;;;;;;;;;;;;;;;20.02;30.88;101554.56;5032915;28;20379;-71
2022/04/21 08:33:43;;;;;;;;;;;;;;;20.06;30.45;101551.03;4969026;28;19921;-71
2022/04/21 08:36:08;;;;;;;;;;;;;;;20.48;29.95;101556.28;4954695;28;19994;-72
2022/04/21 08:38:34;;;;;;;;;;;;;;;20.27;29.41;101559.25;4952193;28;20018;-72
2022/04/21 08:41:00;;;;;;;;;;;;;;;20.31;29.87;101554.91;4957680;28;20593;-71
2022/04/21 08:43:27;;;;;;;;;;;;;;;20.66;28.93;101558.44;4952752;29;20001;-72
2022/04/21 08:45:53;;;;;;;;;;;;;;;21.04;28.92;101558.97;4982520;28;19918;-70
2022/04/21 08:48:19;;;;;;;;;;;;;;;20.47;29.24;101559.28;4989558;28;19917;-73
2022/04/21 08:50:44;;;;;;;;;;;;;;;21.05;28.57;101552.44;4968231;28;19980;-72
2022/04/21 08:53:11;;;;;;;;;;;;;;;20.85;28.36;101555.97;4971244;28;19917;-72
2022/04/21 08:55:36;;;;;;;;;;;;;;;21.09;28.00;101558.97;4972165;28;19964;-71
2022/04/21 08:58:02;;;;;;;;;;;;;;;21.24;27.95;101557.00;4955220;28;19957;-72
2022/04/21 09:00:27;;;;;;;;;;;;;;;21.09;27.48;101553.50;4971461;28;20301;-71
2022/04/21 09:02:53;;;;;;;;;;;;;;;21.12;27.95;101552.94;4971362;28;20495;-71
2022/04/21 09:05:20;;;;;;;;;;;;;;;21.57;27.36;101548.13;5000108;28;19983;-72
2022/04/21 09:07:49;;;;;;;;;;;;;;;21.96;27.19;101544.63;5029530;28;19948;-72
2022/04/21 09:10:15;;;;;;;;;;;;;;;22.10;26.94;101538.25;5028936;28;19956;-71
2022/04/21 09:12:45;;;;;;;;;;;;;;;21.75;26.76;101539.28;5029230;28;19979;-71
2022/04/21 09:15:12;;;;;;;;;;;;;;;21.72;27.42;101531.63;5030025;28;19917;-71
2022/04/21 09:17:39;;;;;;;;;;;;;;;20.97;27.37;101534.66;5028992;28;20404;-71
2022/04/21 09:20:05;;;;;;;;;;;;;;;21.79;26.42;101531.31;5029108;28;19960;-71
2022/04/21 09:22:31;;;;;;;;;;;;;;;21.40;26.95;101516.75;5029572;28;19912;-72
2022/04/21 09:24:58;;;;;;;;;;;;;;;21.80;26.30;101533.78;5028666;28;19921;-71
2022/04/21 09:27:23;;;;;;;;;;;;;;;21.54;26.85;101526.78;5029294;28;20003;-70
2022/04/21 09:29:48;;;;;;;;;;;;;;;21.59;26.82;101524.03;5027670;28;20003;-71
2022/04/21 09:32:15;;;;;;;;;;;;;;;22.01;26.55;101525.47;5028711;28;19932;-71
2022/04/21 09:34:42;;;;;;;;;;;;;;;22.00;26.50;101521.91;5030145;28;19909;-72
2022/04/21 09:37:07;;;;;;;;;;;;;;;22.69;24.85;101516.97;5028517;28;19932;-71
2022/04/21 09:39:38;;;;;;;;;;;;;;;22.65;25.19;101513.16;5028895;28;19921;-71
2022/04/21 09:42:03;;;;;;;;;;;;;;;22.51;25.48;101525.03;5029296;28;20250;-70
2022/04/21 09:47:16;;;;;;;;;;;;;;;22.26;25.73;101515.13;5029476;28;19990;-71
2022/04/21 09:49:42;;;;;;;;;;;;;;;22.36;25.44;101512.31;5029218;28;19917;-71
2022/04/21 09:52:07;;;;;;;;;;;;;;;22.58;25.03;101517.38;5029618;28;19913;-70
2022/04/21 09:54:34;;;;;;;;;;;;;;;22.55;25.77;101509.66;5028808;28;19924;-70
2022/04/21 09:56:59;;;;;;;;;;;;;;;23.12;25.06;101509.63;5028509;28;19922;-71
2022/04/21 09:59:25;;;;;;;;;;;;;;;22.71;24.70;101502.97;5028986;28;19948;-70
2022/04/21 10:01:50;;;;;;;;;;;;;;;23.40;24.34;101497.81;5029880;28;19935;-70
2022/04/21 10:04:19;;;;;;;;;;;;;;;23.31;24.35;101505.03;5031798;28;19963;-71
2022/04/21 10:06:44;;;;;;;;;;;;;;;22.59;25.35;101497.88;5032115;28;19929;-70
2022/04/21 10:09:10;;;;;;;;;;;;;;;22.84;25.10;101490.53;5032283;28;19922;-71
2022/04/21 10:11:40;;;;;;;;;;;;;;;23.69;24.16;101505.09;5032131;28;19917;-72
2022/04/21 10:14:06;;;;;;;;;;;;;;;22.75;25.39;101484.03;5029953;28;19913;-71
2022/04/21 10:16:32;;;;;;;;;;;;;;;23.19;25.38;101479.13;5031627;28;20410;-73
2022/04/21 10:18:58;;;;;;;;;;;;;;;24.08;24.69;101476.22;5033306;28;19917;-70
2022/04/21 10:21:32;;;;;;;;;;;;;;;23.48;24.14;101477.13;5034750;28;19928;-72
2022/04/21 10:23:58;;;;;;;;;;;;;;;23.13;24.67;101474.81;5034350;28;19921;-71
2022/04/21 10:26:40;;;;;;;;;;;;;;;22.88;24.92;101475.13;5034365;28;19913;-71
2022/04/21 10:29:15;;;;;;;;;;;;;;;23.97;24.43;101466.50;5033845;28;20369;-71
2022/04/21 10:32:03;;;;;;;;;;;;;;;24.03;23.93;101461.78;5034410;28;19923;-71
2022/04/21 10:34:28;;;;;;;;;;;;;;;22.85;24.90;101461.97;5034764;28;19979;-70
2022/04/21 10:37:06;;;;;;;;;;;;;;;23.15;24.43;101469.84;5032871;28;19921;-70
2022/04/21 10:39:31;;;;;;;;;;;;;;;23.80;23.88;101444.28;5034131;28;19917;-70
2022/04/21 10:42:14;;;;;;;;;;;;;;;23.70;23.87;101444.44;5034241;28;19928;-70
2022/04/21 10:45:05;;;;;;;;;;;;;;;24.25;24.16;101439.97;5031324;28;19921;-71
2022/04/21 10:47:38;;;;;;;;;;;;;;;23.81;23.35;101439.56;5032571;28;19995;-72
2022/04/21 10:50:13;;;;;;;;;;;;;;;24.80;22.60;101432.66;5031296;28;19921;-73
2022/04/21 10:57:55;;;;;;;;;;;;;;;24.83;22.76;101427.34;5034005;28;19951;-73
2022/04/21 11:00:24;;;;;;;;;;;;;;;25.31;22.23;101424.94;5032316;28;19925;-71
2022/04/21 11:03:00;;;;;;;;;;;;;;;25.52;22.32;101430.81;5034182;28;19920;-70
2022/04/21 11:05:33;;;;;;;;;;;;;;;25.37;22.09;101429.22;5043808;28;19921;-70
2022/04/21 11:08:18;;;;;;;;;;;;;;;25.11;22.49;101422.63;5033063;28;19952;-69
2022/04/21 11:10:44;;;;;;;;;;;;;;;24.87;22.17;101420.09;5018654;28;19995;-69
2022/04/21 11:13:16;;;;;;;;;;;;;;;25.35;22.21;101422.38;5033640;28;20000;-68
2022/04/21 11:15:44;;;;;;;;;;;;;;;25.07;22.21;101408.69;5065621;28;19945;-70
2022/04/21 11:18:14;;;;;;;;;;;;;;;24.28;22.45;101418.22;5033754;28;19917;-69
2022/04/21 11:20:43;;;;;;;;;;;;;;;24.09;22.90;101403.72;5032307;28;19921;-69
2022/04/21 11:23:09;;;;;;;;;;;;;;;24.79;21.78;101403.50;5033734;28;20257;-71
2022/04/21 11:25:35;;;;;;;;;;;;;;;23.80;23.28;101392.13;5065805;28;19995;-71
2022/04/21 11:28:02;;;;;;;;;;;;;;;24.48;22.69;101406.03;5032639;28;20009;-71
2022/04/21 11:30:28;;;;;;;;;;;;;;;24.77;22.06;101412.06;5033492;28;20551;-73
2022/04/21 11:32:53;;;;;;;;;;;;;;;25.50;21.88;101400.88;5033087;28;19975;-70
2022/04/21 11:35:22;;;;;;;;;;;;;;;25.71;20.81;101402.00;5032787;28;19925;-71
2022/04/21 11:37:47;;;;;;;;;;;;;;;26.09;20.39;101402.47;5034335;28;20333;-73
2022/04/21 11:40:22;;;;;;;;;;;;;;;26.30;20.46;101403.53;5032874;28;19967;-71
2022/04/21 11:42:49;;;;;;;;;;;;;;;25.15;21.02;101402.47;5030322;28;19972;-71
2022/04/21 11:45:27;;;;;;;;;;;;;;;25.77;20.78;101402.69;5032969;28;19924;-72
2022/04/21 11:47:53;;;;;;;;;;;;;;;25.16;21.41;101400.50;5032715;28;19916;-73
2022/04/21 11:50:19;;;;;;;;;;;;;;;25.18;21.03;101392.75;5032749;28;20311;-72
2022/04/21 11:52:46;;;;;;;;;;;;;;;26.02;20.82;101394.59;5032969;28;19916;-72
2022/04/21 11:55:14;;;;;;;;;;;;;;;26.19;19.85;101391.16;5032824;28;19924;-73
2022/04/21 11:57:43;;;;;;;;;;;;;;;26.30;20.84;101392.50;5032417;28;19913;-71
2022/04/21 12:00:08;;;;;;;;;;;;;;;25.92;20.55;101385.78;5030850;28;19932;-72
2022/04/21 12:08:03;;;;;;;;;;;;;;;25.30;20.77;101384.78;5032460;28;19955;-72
2022/04/21 12:10:28;;;;;;;;;;;;;;;24.57;21.79;101386.91;5032085;28;19909;-68
2022/04/21 12:12:53;;;;;;;;;;;;;;;24.70;21.68;101388.81;5031944;28;19939;-68
2022/04/21 12:15:31;;;;;;;;;;;;;;;24.63;22.06;101380.19;5031766;28;19978;-69
2022/04/21 12:18:00;;;;;;;;;;;;;;;26.32;20.10;101376.47;5031663;28;19913;-69
2022/04/21 12:20:26;;;;;;;;;;;;;;;25.07;20.65;101375.69;5031635;28;19975;-69
2022/04/21 12:22:51;;;;;;;;;;;;;;;25.41;20.54;101377.16;5031776;28;19917;-68
2022/04/21 12:25:17;;;;;;;;;;;;;;;26.74;19.77;101375.88;5030172;28;20055;-67
2022/04/21 12:27:42;;;;;;;;;;;;;;;26.07;20.56;101379.91;5031356;28;19921;-68
2022/04/21 12:30:08;;;;;;;;;;;;;;;27.13;19.70;101377.72;5031579;28;19916;-70
2022/04/21 12:32:41;;;;;;;;;;;;;;;27.36;20.64;101373.72;5031449;28;19920;-69
2022/04/21 12:35:07;;;;;;;;;;;;;;;26.31;20.38;101380.38;5012132;28;19921;-68
2022/04/21 12:37:33;;;;;;;;;;;;;;;25.82;20.75;101373.09;5026370;28;19964;-70
2022/04/21 12:40:00;;;;;;;;;;;;;;;26.14;21.43;101371.22;5030651;28;20277;-69
2022/04/21 12:42:26;;;;;;;;;;;;;;;25.98;21.05;101373.53;5030903;28;19942;-69
2022/04/21 12:44:53;;;;;;;;;;;;;;;26.34;20.87;101367.91;5027622;28;19944;-69
2022/04/21 12:47:19;;;;;;;;;;;;;;;25.89;21.04;101353.34;5029269;28;19952;-70
2022/04/21 12:49:50;;;;;;;;;;;;;;;26.55;20.91;101357.94;5015848;28;19921;-68
2022/04/21 12:52:36;;;;;;;;;;;;;;;26.76;19.61;101354.31;5030645;28;19967;-69
2022/04/21 12:55:07;;;;;;;;;;;;;;;26.50;20.50;101350.63;5026698;28;20063;-70
2022/04/21 12:57:32;;;;;;;;;;;;;;;26.01;20.58;101350.84;5030726;28;20011;-69
2022/04/21 12:59:58;;;;;;;;;;;;;;;27.57;19.96;101346.28;5027878;28;20436;-71
2022/04/21 13:02:24;;;;;;;;;;;;;;;26.79;20.22;101350.88;5027887;28;19924;-71
2022/04/21 13:04:49;;;;;;;;;;;;;;;27.11;19.20;101330.31;5031328;28;20384;-69
2022/04/21 13:07:15;;;;;;;;;;;;;;;27.03;19.45;101336.66;5030893;28;19917;-69
2022/04/21 13:09:40;;;;;;;;;;;;;;;28.36;18.51;101333.53;5030840;28;19979;-69
2022/04/21 13:12:06;;;;;;;;;;;;;;;28.61;18.57;101331.84;5030378;28;20335;-68
2022/04/21 13:14:31;;;;;;;;;;;;;;;27.86;19.10;101331.75;5030412;28;19913;-68
2022/04/21 13:16:57;;;;;;;;;;;;;;;27.95;19.41;101329.81;5031242;28;20003;-69
2022/04/21 13:19:22;;;;;;;;;;;;;;;27.86;19.21;101328.97;5030435;28;19924;-70
2022/04/21 13:21:55;;;;;;;;;;;;;;;28.21;18.98;101334.09;5030780;28;20403;-69